Time;durP1;ratioP1;P1;durP2;ratioP2;P2;SDS_P1;SDS_P2;PMS_P1;PMS_P2;Temp;Humidity;BMP_temperature;BMP_pressure;BME280_temperature;BME280_humidity;BME280_pressure;Samples;Min_cycle;Max_cycle;Signal;HPM_P1;HPM_P2
2023/09/18 00:00:08;;;;;;;203.70;119.55;;;27.70;99.90;;;;;;5069499;28;20484;-67
2023/09/18 00:02:35;;;;;;;199.57;119.72;;;27.80;99.90;;;;;;5063763;28;20055;-67
2023/09/18 00:05:01;;;;;;;228.50;124.07;;;27.80;99.90;;;;;;5072388;28;20051;-68
2023/09/18 00:07:28;;;;;;;212.27;129.40;;;27.80;99.90;;;;;;5069360;28;20426;-66
2023/09/18 00:09:54;;;;;;;243.38;137.18;;;27.90;99.90;;;;;;5057840;28;20402;-67
2023/09/18 00:12:21;;;;;;;248.23;145.32;;;27.90;99.90;;;;;;5065492;28;20024;-67
2023/09/18 00:14:49;;;;;;;250.70;148.60;;;27.90;99.90;;;;;;5059354;28;20024;-68
2023/09/18 00:17:19;;;;;;;280.60;156.10;;;27.90;99.90;;;;;;5064915;28;20025;-68
2023/09/18 00:19:45;;;;;;;270.65;157.68;;;27.90;99.90;;;;;;5075958;28;20028;-68
2023/09/18 00:22:12;;;;;;;266.77;155.57;;;27.90;99.90;;;;;;5068682;28;20028;-69
2023/09/18 00:24:39;;;;;;;278.02;155.48;;;27.90;99.90;;;;;;5055915;28;20383;-68
2023/09/18 00:27:06;;;;;;;281.08;156.07;;;27.90;99.90;;;;;;5055777;28;20104;-68
2023/09/18 00:29:32;;;;;;;284.85;160.63;;;27.90;99.90;;;;;;5055701;28;20052;-68
2023/09/18 00:31:59;;;;;;;278.67;158.07;;;27.90;99.90;;;;;;5055638;28;20437;-67
2023/09/18 00:34:25;;;;;;;296.05;161.02;;;27.90;99.90;;;;;;5055832;28;20021;-67
2023/09/18 00:36:52;;;;;;;273.90;163.25;;;28.00;99.90;;;;;;5055559;28;20025;-69
2023/09/18 00:39:18;;;;;;;270.70;156.07;;;28.00;99.90;;;;;;5055587;28;20028;-69
2023/09/18 00:41:49;;;;;;;275.55;154.25;;;28.00;99.90;;;;;;5055656;28;20017;-68
2023/09/18 00:44:15;;;;;;;273.33;155.07;;;28.00;99.90;;;;;;5055445;28;20021;-68
2023/09/18 00:46:43;;;;;;;285.85;151.75;;;28.10;99.90;;;;;;5055524;28;20418;-68
2023/09/18 00:49:10;;;;;;;277.92;159.10;;;28.10;99.90;;;;;;5054167;28;20029;-68
2023/09/18 00:51:36;;;;;;;253.80;147.15;;;28.10;99.90;;;;;;5055210;28;20024;-68
2023/09/18 00:54:03;;;;;;;246.93;140.80;;;28.10;99.90;;;;;;5055305;28;20126;-69
2023/09/18 00:56:30;;;;;;;247.25;143.10;;;28.10;99.90;;;;;;5055250;28;20029;-71
2023/09/18 00:58:57;;;;;;;248.88;141.75;;;28.10;99.90;;;;;;5054983;28;20382;-70
2023/09/18 01:01:24;;;;;;;243.02;137.52;;;28.20;99.90;;;;;;5055241;28;20017;-70
2023/09/18 01:03:53;;;;;;;216.32;125.80;;;28.20;99.90;;;;;;5055201;28;20017;-69
2023/09/18 01:06:20;;;;;;;209.45;125.25;;;28.20;99.90;;;;;;5054855;28;20037;-69
2023/09/18 01:08:50;;;;;;;198.25;118.55;;;28.30;99.90;;;;;;5055270;28;20361;-69
2023/09/18 01:11:37;;;;;;;199.02;116.28;;;28.40;99.90;;;;;;5055065;28;20031;-68
2023/09/18 01:14:19;;;;;;;200.15;112.53;;;28.40;99.90;;;;;;5048074;28;20109;-69
2023/09/18 01:16:56;;;;;;;202.50;120.45;;;28.50;99.90;;;;;;5054868;28;20483;-69
2023/09/18 01:19:45;;;;;;;181.48;112.55;;;28.60;99.90;;;;;;5054887;28;20040;-70
2023/09/18 01:22:16;;;;;;;173.93;103.38;;;28.60;99.90;;;;;;5054773;28;20533;-70
2023/09/18 01:24:44;;;;;;;173.57;99.30;;;28.60;99.90;;;;;;5054745;28;20112;-70
2023/09/18 01:27:16;;;;;;;154.32;93.82;;;28.80;99.90;;;;;;5053944;28;20021;-69
2023/09/18 01:29:46;;;;;;;155.90;92.95;;;28.80;99.90;;;;;;5054773;28;20029;-70
2023/09/18 01:32:13;;;;;;;154.00;89.32;;;28.90;99.90;;;;;;5054692;28;20025;-70
2023/09/18 01:34:52;;;;;;;139.13;83.80;;;29.00;99.90;;;;;;5054520;28;20036;-70
2023/09/18 01:37:23;;;;;;;139.57;80.90;;;29.00;99.90;;;;;;5054594;28;20391;-71
2023/09/18 01:39:53;;;;;;;130.93;79.50;;;29.00;99.90;;;;;;5054269;28;20076;-70
2023/09/18 01:42:20;;;;;;;138.10;83.97;;;29.10;99.90;;;;;;5054450;28;20100;-71
2023/09/18 01:44:48;;;;;;;128.27;77.35;;;29.20;99.90;;;;;;5054419;28;20049;-70
2023/09/18 01:47:18;;;;;;;126.72;76.70;;;29.20;99.90;;;;;;5054280;28;20071;-66
2023/09/18 01:49:46;;;;;;;126.05;74.15;;;29.40;99.90;;;;;;5054305;28;20025;-72
2023/09/18 01:52:15;;;;;;;117.05;72.32;;;29.50;99.90;;;;;;5054149;28;20055;-72
2023/09/18 01:54:41;;;;;;;121.40;70.97;;;29.70;99.90;;;;;;5054424;28;20414;-72
2023/09/18 01:57:08;;;;;;;115.97;69.85;;;29.70;99.90;;;;;;5054167;28;20079;-71
2023/09/18 01:59:35;;;;;;;106.35;60.97;;;29.80;99.90;;;;;;5054040;28;20364;-70
2023/09/18 02:02:06;;;;;;;113.03;61.85;;;29.80;99.90;;;;;;5070107;28;20032;-70
2023/09/18 02:04:34;;;;;;;115.63;61.92;;;29.90;99.90;;;;;;5073844;28;20021;-72
2023/09/18 02:07:00;;;;;;;95.80;59.90;;;29.90;99.90;;;;;;5070831;28;20037;-71
2023/09/18 02:09:27;;;;;;;102.00;60.10;;;29.90;99.90;;;;;;5068124;28;20028;-71
2023/09/18 02:11:53;;;;;;;111.22;66.03;;;30.10;99.90;;;;;;5073893;28;20498;-71
2023/09/18 02:14:20;;;;;;;119.65;70.40;;;30.20;99.90;;;;;;5073890;28;20025;-71
2023/09/18 02:16:46;;;;;;;135.63;78.28;;;30.10;99.90;;;;;;5073693;28;20029;-70
2023/09/18 02:19:14;;;;;;;158.18;86.65;;;30.20;99.90;;;;;;5073700;28;20027;-72
2023/09/18 02:21:41;;;;;;;176.60;99.93;;;30.20;99.90;;;;;;5073788;28;20021;-71
2023/09/18 02:24:07;;;;;;;219.25;117.43;;;30.20;99.90;;;;;;5073587;28;20020;-70
2023/09/18 02:26:34;;;;;;;234.73;129.52;;;30.20;99.90;;;;;;5070403;28;20091;-70
2023/09/18 02:29:04;;;;;;;220.13;124.68;;;30.30;99.90;;;;;;5053591;28;20486;-69
2023/09/18 02:31:30;;;;;;;244.13;130.20;;;30.20;99.90;;;;;;5053407;28;20056;-67
2023/09/18 02:33:57;;;;;;;245.23;135.52;;;30.30;99.90;;;;;;5053396;28;20082;-68
2023/09/18 02:36:23;;;;;;;263.67;143.27;;;30.30;99.90;;;;;;5053444;28;20029;-68
2023/09/18 02:38:50;;;;;;;262.13;143.48;;;30.50;99.90;;;;;;5052538;28;20033;-68
2023/09/18 02:41:17;;;;;;;263.45;142.95;;;30.50;99.90;;;;;;5053606;28;20091;-68
2023/09/18 02:43:43;;;;;;;275.50;152.07;;;30.50;99.90;;;;;;5053297;28;20453;-68
2023/09/18 02:46:10;;;;;;;270.27;146.88;;;30.50;99.90;;;;;;5053179;28;20491;-71
2023/09/18 02:48:36;;;;;;;239.23;129.73;;;30.50;99.90;;;;;;5052189;28;20445;-68
2023/09/18 02:51:03;;;;;;;248.13;135.82;;;30.60;99.90;;;;;;5055729;28;20383;-69
2023/09/18 02:53:30;;;;;;;274.67;148.13;;;30.60;99.90;;;;;;5062031;28;20055;-69
2023/09/18 02:55:58;;;;;;;292.55;153.32;;;30.60;99.90;;;;;;5053352;28;20021;-68
2023/09/18 02:58:28;;;;;;;273.73;152.90;;;30.70;99.90;;;;;;5053470;28;20025;-67
2023/09/18 03:00:59;;;;;;;261.85;142.02;;;30.80;99.90;;;;;;5053542;28;20021;-67
2023/09/18 03:03:26;;;;;;;216.30;112.57;;;30.70;99.90;;;;;;5053437;28;20147;-63
2023/09/18 03:05:53;;;;;;;99.43;49.75;;;30.80;99.90;;;;;;5052881;28;20052;-64
2023/09/18 03:08:19;;;;;;;51.97;30.13;;;30.90;99.90;;;;;;5053200;28;20387;-64
2023/09/18 03:10:46;;;;;;;45.92;25.92;;;31.00;99.90;;;;;;5053091;28;20083;-62
2023/09/18 03:13:15;;;;;;;40.00;23.65;;;31.10;99.90;;;;;;5053107;28;20108;-63
2023/09/18 03:15:46;;;;;;;40.42;24.20;;;31.20;99.90;;;;;;5052843;28;20032;-63
2023/09/18 03:18:13;;;;;;;39.38;21.58;;;31.30;99.90;;;;;;5053026;28;20031;-63
2023/09/18 03:20:40;;;;;;;38.50;22.38;;;31.40;99.90;;;;;;5052890;28;20033;-63
2023/09/18 03:23:07;;;;;;;27.80;21.30;;;31.50;99.90;;;;;;5053115;28;20025;-63
2023/09/18 03:25:33;;;;;;;43.03;23.38;;;31.50;99.90;;;;;;5053046;28;20029;-63
2023/09/18 03:28:00;;;;;;;32.47;22.27;;;31.50;99.90;;;;;;5053192;28;20060;-62
2023/09/18 03:30:26;;;;;;;30.40;21.75;;;31.50;99.90;;;;;;5052732;28;20025;-62
2023/09/18 03:32:53;;;;;;;31.52;23.20;;;31.60;99.90;;;;;;5052934;28;20029;-63
2023/09/18 03:35:21;;;;;;;45.28;24.50;;;31.60;99.90;;;;;;5052811;28;20065;-65
2023/09/18 03:37:50;;;;;;;45.65;24.10;;;31.70;99.90;;;;;;5052601;28;20029;-63
2023/09/18 03:40:18;;;;;;;39.03;24.63;;;31.70;99.90;;;;;;5053182;28;20416;-63
2023/09/18 03:42:45;;;;;;;38.38;23.02;;;31.70;99.90;;;;;;5052828;28;20360;-64
2023/09/18 03:45:12;;;;;;;44.72;23.60;;;31.70;99.90;;;;;;5052854;28;20025;-63
2023/09/18 03:47:40;;;;;;;39.08;23.48;;;31.80;99.90;;;;;;5087086;28;20016;-63
2023/09/18 03:50:09;;;;;;;47.78;22.45;;;31.90;99.90;;;;;;5083181;28;20501;-62
2023/09/18 03:52:38;;;;;;;36.15;21.92;;;32.00;99.90;;;;;;5086164;28;20107;-63
2023/09/18 03:55:06;;;;;;;40.88;24.08;;;32.00;99.90;;;;;;5086167;28;20113;-64
2023/09/18 03:57:32;;;;;;;32.17;22.75;;;32.10;99.90;;;;;;5096997;28;20028;-64
2023/09/18 03:59:59;;;;;;;34.40;20.83;;;32.20;99.90;;;;;;5096600;28;20505;-65
2023/09/18 04:02:26;;;;;;;34.42;21.00;;;32.30;99.90;;;;;;5096288;28;20032;-64
2023/09/18 04:04:54;;;;;;;35.72;21.05;;;32.40;99.90;;;;;;5096573;28;20118;-64
2023/09/18 04:07:21;;;;;;;36.83;21.80;;;32.40;99.90;;;;;;5085031;28;20028;-64
2023/09/18 04:09:48;;;;;;;32.92;21.88;;;32.40;99.90;;;;;;5085650;28;20023;-61
2023/09/18 04:12:15;;;;;;;33.88;22.95;;;32.50;99.90;;;;;;5086901;28;20028;-62
2023/09/18 04:14:42;;;;;;;35.75;21.77;;;32.60;99.90;;;;;;5085650;28;20016;-62
2023/09/18 04:17:08;;;;;;;33.53;21.88;;;32.70;99.90;;;;;;5086553;28;20020;-63
2023/09/18 04:19:35;;;;;;;28.23;19.52;;;32.70;99.90;;;;;;5082609;28;20024;-63
2023/09/18 04:22:02;;;;;;;30.75;21.02;;;32.70;99.90;;;;;;5086338;28;20459;-63
2023/09/18 04:24:28;;;;;;;33.33;22.02;;;32.70;99.90;;;;;;5086675;28;20097;-62
2023/09/18 04:26:55;;;;;;;38.63;23.48;;;32.80;99.90;;;;;;5084679;28;20031;-62
2023/09/18 04:29:21;;;;;;;38.45;24.10;;;32.90;99.90;;;;;;5085629;28;20025;-64
2023/09/18 04:31:48;;;;;;;40.03;22.45;;;32.90;99.90;;;;;;5086459;28;20032;-64
2023/09/18 04:34:15;;;;;;;44.25;23.83;;;32.90;99.90;;;;;;5085069;28;20383;-63
2023/09/18 04:36:43;;;;;;;34.95;22.73;;;33.00;99.90;;;;;;5085950;28;20022;-63
2023/09/18 04:39:10;;;;;;;31.40;21.15;;;33.10;99.90;;;;;;5086694;28;20666;-63
2023/09/18 04:41:36;;;;;;;34.85;20.75;;;33.20;99.90;;;;;;5081876;28;20098;-64
2023/09/18 04:44:04;;;;;;;31.35;21.95;;;33.20;99.90;;;;;;5084900;28;20473;-64
2023/09/18 04:46:31;;;;;;;31.52;23.08;;;33.20;99.90;;;;;;5086147;28;20098;-64
2023/09/18 04:48:58;;;;;;;36.28;24.50;;;33.20;99.90;;;;;;5084878;28;20024;-63
2023/09/18 04:51:24;;;;;;;33.78;23.00;;;33.40;99.90;;;;;;5080823;28;20499;-63
2023/09/18 04:53:51;;;;;;;31.48;22.27;;;33.50;99.90;;;;;;5085397;28;20028;-62
2023/09/18 04:56:20;;;;;;;44.67;23.92;;;33.60;99.90;;;;;;5081092;28;20103;-63
2023/09/18 04:58:46;;;;;;;38.85;25.02;;;33.70;99.90;;;;;;5077796;28;20040;-65
2023/09/18 05:01:13;;;;;;;36.20;21.70;;;33.60;99.90;;;;;;5084731;28;20418;-64
2023/09/18 05:03:40;;;;;;;36.30;21.77;;;33.50;99.90;;;;;;5083539;28;20016;-64
2023/09/18 05:06:06;;;;;;;28.23;21.20;;;33.50;99.90;;;;;;5087703;28;20150;-65
2023/09/18 05:08:33;;;;;;;30.33;21.48;;;33.50;99.90;;;;;;5085374;28;20450;-64
2023/09/18 05:11:00;;;;;;;34.13;21.25;;;33.40;99.90;;;;;;5083626;28;20471;-65
2023/09/18 05:13:27;;;;;;;34.05;21.73;;;33.40;99.90;;;;;;5084680;28;20028;-64
2023/09/18 05:15:53;;;;;;;35.22;22.52;;;33.30;99.90;;;;;;5085284;28;20020;-65
2023/09/18 05:18:20;;;;;;;40.25;27.40;;;33.30;99.90;;;;;;5083424;28;20021;-65
2023/09/18 05:20:46;;;;;;;42.60;26.48;;;33.20;99.90;;;;;;5086235;28;20034;-65
2023/09/18 05:23:13;;;;;;;38.25;24.88;;;33.20;99.90;;;;;;5084087;28;20419;-66
2023/09/18 05:25:41;;;;;;;40.50;24.73;;;33.40;99.90;;;;;;5094667;28;20016;-65
2023/09/18 05:28:08;;;;;;;44.08;26.92;;;33.40;99.90;;;;;;5095109;28;20485;-66
2023/09/18 05:30:38;;;;;;;39.88;27.48;;;33.40;99.90;;;;;;5095149;28;20032;-65
2023/09/18 05:33:06;;;;;;;43.97;29.80;;;33.50;99.90;;;;;;5095090;28;20056;-65
2023/09/18 05:35:33;;;;;;;41.90;25.70;;;33.50;99.90;;;;;;5084185;28;20077;-66
2023/09/18 05:38:00;;;;;;;35.78;24.70;;;33.70;99.90;;;;;;5075575;28;20021;-66
2023/09/18 05:40:27;;;;;;;32.03;23.52;;;33.80;99.90;;;;;;5075065;28;20102;-66
2023/09/18 05:42:55;;;;;;;35.22;24.08;;;33.80;99.90;;;;;;5074819;28;20012;-67
2023/09/18 05:45:22;;;;;;;36.20;23.63;;;33.80;99.90;;;;;;5074859;28;20031;-67
2023/09/18 05:47:49;;;;;;;35.30;23.40;;;33.80;99.90;;;;;;5077399;28;20024;-66
2023/09/18 05:50:17;;;;;;;37.83;25.80;;;33.90;99.90;;;;;;5085110;28;20555;-66
2023/09/18 05:52:51;;;;;;;47.10;29.98;;;33.90;99.70;;;;;;5082599;28;20158;-66
2023/09/18 05:55:18;;;;;;;39.78;26.77;;;33.80;98.90;;;;;;5083126;28;20020;-65
2023/09/18 05:57:44;;;;;;;41.88;29.05;;;33.80;99.20;;;;;;5083270;28;20023;-66
2023/09/18 06:00:16;;;;;;;47.42;27.92;;;33.80;99.70;;;;;;5085178;28;20016;-67
2023/09/18 06:02:43;;;;;;;37.72;23.15;;;33.90;99.90;;;;;;5084218;28;20020;-67
2023/09/18 06:05:11;;;;;;;38.60;24.30;;;34.00;99.90;;;;;;5082478;28;20048;-67
2023/09/18 06:07:40;;;;;;;38.22;25.52;;;34.20;99.30;;;;;;5080240;28;20382;-69
2023/09/18 06:10:07;;;;;;;35.72;24.55;;;34.40;98.70;;;;;;5086782;28;20482;-68
2023/09/18 06:12:33;;;;;;;48.22;29.45;;;34.40;98.70;;;;;;5083362;28;20027;-69
2023/09/18 06:15:00;;;;;;;52.35;32.63;;;34.60;99.00;;;;;;5082202;28;20021;-69
2023/09/18 06:17:29;;;;;;;67.68;39.08;;;34.50;98.50;;;;;;5081691;28;20036;-67
2023/09/18 06:19:56;;;;;;;52.17;34.80;;;34.30;98.00;;;;;;5084449;28;20530;-67
2023/09/18 06:22:23;;;;;;;49.72;30.88;;;34.10;98.20;;;;;;5083694;28;20026;-67
2023/09/18 06:24:49;;;;;;;51.30;33.22;;;34.00;98.10;;;;;;5082336;28;20029;-67
2023/09/18 06:27:16;;;;;;;58.72;39.42;;;33.80;98.40;;;;;;5084117;28;20027;-66
2023/09/18 06:29:43;;;;;;;53.15;33.53;;;33.70;99.00;;;;;;5082160;28;20017;-67
2023/09/18 06:32:09;;;;;;;56.47;37.67;;;33.50;99.90;;;;;;5080628;28;20025;-67
2023/09/18 06:34:36;;;;;;;66.53;42.30;;;33.40;99.90;;;;;;5075638;28;20721;-68
2023/09/18 06:37:06;;;;;;;65.85;44.40;;;33.20;99.90;;;;;;5073236;28;20028;-66
2023/09/18 06:39:32;;;;;;;66.35;43.25;;;33.10;99.90;;;;;;5076085;28;20027;-66
2023/09/18 06:41:59;;;;;;;76.70;42.65;;;33.10;99.90;;;;;;5084060;28;20008;-66
2023/09/18 06:44:25;;;;;;;57.90;39.25;;;33.00;99.90;;;;;;5082792;28;20012;-65
2023/09/18 06:46:53;;;;;;;64.35;42.83;;;33.00;99.90;;;;;;5084243;28;20087;-67
2023/09/18 06:49:19;;;;;;;69.05;44.45;;;33.10;99.90;;;;;;5084155;28;20470;-65
2023/09/18 06:51:46;;;;;;;68.78;45.67;;;33.10;99.90;;;;;;5079833;28;20029;-66
2023/09/18 06:54:12;;;;;;;65.50;44.50;;;33.10;99.90;;;;;;5082969;28;20016;-65
2023/09/18 06:56:41;;;;;;;64.45;41.80;;;33.10;99.90;;;;;;5083597;28;20027;-67
2023/09/18 06:59:08;;;;;;;61.47;43.20;;;33.10;99.90;;;;;;5079544;28;20024;-67
2023/09/18 07:01:34;;;;;;;66.03;44.53;;;33.20;99.90;;;;;;5082895;28;20017;-67
2023/09/18 07:04:01;;;;;;;63.22;43.22;;;33.20;99.90;;;;;;5083657;28;20017;-65
2023/09/18 07:06:28;;;;;;;67.95;46.63;;;33.20;99.90;;;;;;5079412;28;20465;-67
2023/09/18 07:08:54;;;;;;;61.72;46.13;;;33.20;99.90;;;;;;5082881;28;20116;-63
2023/09/18 07:11:21;;;;;;;73.05;51.58;;;33.20;99.90;;;;;;5083972;28;20039;-63
2023/09/18 07:13:48;;;;;;;67.10;48.95;;;33.20;99.90;;;;;;5082586;28;20142;-62
2023/09/18 07:16:14;;;;;;;77.18;53.75;;;33.20;99.90;;;;;;5084879;28;20068;-66
2023/09/18 07:18:41;;;;;;;84.65;54.63;;;33.20;99.90;;;;;;5093049;28;20107;-66
2023/09/18 07:21:08;;;;;;;82.85;56.08;;;33.20;99.90;;;;;;5093313;28;20035;-66
2023/09/18 07:23:37;;;;;;;81.72;58.75;;;33.20;99.90;;;;;;5093258;28;20071;-65
2023/09/18 07:26:03;;;;;;;93.47;62.28;;;33.20;99.90;;;;;;5096601;28;20020;-64
2023/09/18 07:28:30;;;;;;;97.93;68.30;;;33.30;99.50;;;;;;5088165;28;20425;-67
2023/09/18 07:30:56;;;;;;;104.15;71.15;;;33.20;99.20;;;;;;5088037;28;20470;-69
2023/09/18 07:33:23;;;;;;;103.75;78.53;;;33.30;99.20;;;;;;5086209;28;20035;-69
2023/09/18 07:35:51;;;;;;;109.60;78.93;;;33.30;99.10;;;;;;5084968;28;20322;-69
2023/09/18 07:38:19;;;;;;;104.03;78.10;;;33.30;98.90;;;;;;5082551;28;20119;-68
2023/09/18 07:40:47;;;;;;;108.25;80.38;;;33.30;99.10;;;;;;5082540;28;20082;-64
2023/09/18 07:43:14;;;;;;;107.57;79.72;;;33.40;98.90;;;;;;5076659;28;20501;-64
2023/09/18 07:45:41;;;;;;;112.57;82.05;;;33.40;98.80;;;;;;5076644;28;20029;-65
2023/09/18 07:48:08;;;;;;;131.15;92.78;;;33.40;98.80;;;;;;5076737;28;20024;-64
2023/09/18 07:50:36;;;;;;;134.68;100.75;;;33.40;98.90;;;;;;5076453;28;20040;-65
2023/09/18 07:53:03;;;;;;;131.77;98.55;;;33.40;98.50;;;;;;5076589;28;20471;-65
2023/09/18 07:55:30;;;;;;;106.88;76.63;;;33.40;98.90;;;;;;5076422;28;20032;-65
2023/09/18 07:57:59;;;;;;;75.25;53.78;;;33.40;99.20;;;;;;5076809;28;20074;-65
2023/09/18 08:00:25;;;;;;;65.63;46.08;;;33.30;99.50;;;;;;5076251;28;20032;-64
2023/09/18 08:02:58;;;;;;;55.25;36.03;;;33.30;99.80;;;;;;5076250;28;20024;-65
2023/09/18 08:05:27;;;;;;;57.85;35.40;;;33.40;99.90;;;;;;5076216;28;20418;-65
2023/09/18 08:07:58;;;;;;;57.58;37.60;;;33.40;99.90;;;;;;5076422;28;20105;-64
2023/09/18 08:10:26;;;;;;;67.53;42.77;;;33.40;99.90;;;;;;5076051;28;20102;-66
2023/09/18 08:12:53;;;;;;;76.22;49.80;;;33.40;99.70;;;;;;5076042;28;20273;-64
2023/09/18 08:15:22;;;;;;;79.15;50.25;;;33.40;99.40;;;;;;5076190;28;20020;-65
2023/09/18 08:17:49;;;;;;;76.00;52.95;;;33.40;99.30;;;;;;5075838;28;20024;-64
2023/09/18 08:20:16;;;;;;;59.55;40.47;;;33.30;99.00;;;;;;5075976;28;20028;-65
2023/09/18 08:22:44;;;;;;;51.75;34.05;;;33.30;98.90;;;;;;5075956;28;20103;-65
2023/09/18 08:25:12;;;;;;;79.28;44.65;;;33.30;98.80;;;;;;5076161;28;20021;-65
2023/09/18 08:27:41;;;;;;;77.15;51.83;;;33.30;98.90;;;;;;5075941;28;20021;-65
2023/09/18 08:30:10;;;;;;;83.35;52.35;;;33.30;98.80;;;;;;5075782;28;20029;-65
2023/09/18 08:32:37;;;;;;;73.97;46.10;;;33.30;98.70;;;;;;5083340;28;20032;-65
2023/09/18 08:35:05;;;;;;;69.15;42.65;;;33.30;98.80;;;;;;5086230;28;20462;-65
2023/09/18 08:37:32;;;;;;;58.55;36.42;;;33.30;98.50;;;;;;5084422;28;20021;-66
2023/09/18 08:40:00;;;;;;;48.40;31.02;;;33.30;98.70;;;;;;5081688;28;20056;-68
2023/09/18 08:42:32;;;;;;;42.72;28.80;;;33.30;98.80;;;;;;5075586;28;20077;-67
2023/09/18 08:44:59;;;;;;;;;;;33.30;98.50;;;;;;5075960;28;20532;-66
2023/09/18 08:47:27;;;;;;;42.67;26.73;;;33.40;98.10;;;;;;5075667;28;19908;-66
2023/09/18 08:49:55;;;;;;;60.63;39.15;;;33.30;98.20;;;;;;5077993;28;20029;-67
2023/09/18 08:52:23;;;;;;;78.93;50.60;;;33.40;98.20;;;;;;5092302;28;20036;-67
2023/09/18 08:54:51;;;;;;;89.47;56.85;;;33.30;97.40;;;;;;5080877;28;20024;-67
2023/09/18 08:57:17;;;;;;;73.47;46.65;;;33.30;97.40;;;;;;5079165;28;20024;-66
2023/09/18 08:59:46;;;;;;;77.60;42.53;;;33.30;97.80;;;;;;5075116;28;20020;-66
2023/09/18 09:02:12;;;;;;;62.70;40.70;;;33.40;97.70;;;;;;5075337;28;20024;-66
2023/09/18 09:04:40;;;;;;;88.60;47.83;;;33.40;98.10;;;;;;5074978;28;20091;-66
2023/09/18 09:07:06;;;;;;;82.72;51.35;;;33.40;97.70;;;;;;5074987;28;20021;-67
2023/09/18 09:09:33;;;;;;;70.22;45.13;;;33.40;98.20;;;;;;5081572;28;20033;-68
2023/09/18 09:12:00;;;;;;;66.25;40.92;;;33.30;98.20;;;;;;5084253;28;20493;-69
2023/09/18 09:14:28;;;;;;;80.63;53.53;;;33.40;98.50;;;;;;5078420;28;20033;-69
2023/09/18 09:16:55;;;;;;;97.10;60.95;;;33.40;97.50;;;;;;5083662;28;20382;-69
2023/09/18 09:19:43;;;;;;;81.95;55.15;;;33.30;97.40;;;;;;5083663;28;20030;-67
2023/09/18 09:22:18;;;;;;;102.32;64.93;;;33.30;97.90;;;;;;5084942;28;20028;-67
2023/09/18 09:24:45;;;;;;;69.53;49.13;;;33.30;98.00;;;;;;5085248;28;20037;-67
2023/09/18 09:27:14;;;;;;;82.07;49.33;;;33.30;97.50;;;;;;5080788;28;20019;-69
2023/09/18 09:29:40;;;;;;;84.10;53.00;;;33.30;97.30;;;;;;5084076;28;20016;-68
2023/09/18 09:32:19;;;;;;;69.28;45.53;;;33.20;97.30;;;;;;5085274;28;20020;-68
2023/09/18 09:34:46;;;;;;;64.13;39.30;;;33.30;97.20;;;;;;5085476;28;20028;-71
2023/09/18 09:37:13;;;;;;;59.58;37.20;;;33.20;96.30;;;;;;5083677;28;20017;-71
2023/09/18 09:39:50;;;;;;;61.47;34.28;;;33.20;97.10;;;;;;5083886;28;20028;-71
2023/09/18 09:42:24;;;;;;;45.17;26.83;;;33.20;96.60;;;;;;5082150;28;20089;-71
2023/09/18 09:45:15;;;;;;;44.38;26.30;;;33.20;96.80;;;;;;5080452;28;20021;-71
2023/09/18 09:47:43;;;;;;;37.88;24.80;;;33.20;96.60;;;;;;5083002;28;20027;-71
2023/09/18 09:50:13;;;;;;;41.20;24.55;;;33.20;96.20;;;;;;5082923;28;20046;-72
2023/09/18 09:52:47;;;;;;;50.90;31.70;;;33.10;96.30;;;;;;5083964;28;20043;-71
2023/09/18 09:55:24;;;;;;;40.58;23.92;;;33.10;96.50;;;;;;5080137;28;20031;-69
2023/09/18 09:57:59;;;;;;;27.30;16.38;;;33.00;97.10;;;;;;5080199;28;20021;-71
2023/09/18 10:00:43;;;;;;;124.70;83.47;;;33.00;97.20;;;;;;5080418;28;20016;-70
2023/09/18 10:03:13;;;;;;;449.35;260.25;;;33.00;96.60;;;;;;5081171;28;20016;-69
2023/09/18 10:05:42;;;;;;;157.98;87.55;;;33.00;96.80;;;;;;5080351;28;20052;-71
2023/09/18 10:08:21;;;;;;;200.82;82.47;;;33.00;97.20;;;;;;5092958;28;20020;-71
2023/09/18 10:10:51;;;;;;;133.65;55.60;;;32.90;96.60;;;;;;5093006;28;20097;-72
2023/09/18 10:13:24;;;;;;;307.83;196.63;;;32.90;97.10;;;;;;5093028;28;20527;-72
2023/09/18 10:15:52;;;;;;;148.18;83.43;;;32.90;97.20;;;;;;5093287;28;20391;-73
2023/09/18 10:18:26;;;;;;;139.77;73.10;;;32.80;97.10;;;;;;5080288;28;20402;-71
2023/09/18 10:21:06;;;;;;;264.90;139.25;;;32.70;97.20;;;;;;5072760;28;20015;-72
2023/09/18 10:23:47;;;;;;;322.20;150.48;;;32.70;97.80;;;;;;5079280;28;20016;-72
2023/09/18 10:26:21;;;;;;;238.25;105.65;;;32.70;97.90;;;;;;5086018;28;20028;-70
2023/09/18 10:28:52;;;;;;;339.63;119.60;;;32.70;98.20;;;;;;5085480;28;20024;-72
2023/09/18 10:31:21;;;;;;;243.95;84.38;;;32.70;98.30;;;;;;5080087;28;20395;-73
2023/09/18 10:33:50;;;;;;;350.35;119.43;;;32.60;98.20;;;;;;5088887;28;20111;-69
2023/09/18 10:36:18;;;;;;;288.23;93.32;;;32.60;98.50;;;;;;5088234;28;20107;-70
2023/09/18 10:38:50;;;;;;;195.27;66.28;;;32.60;98.30;;;;;;5090181;28;20024;-72
2023/09/18 10:41:18;;;;;;;;;;;32.50;98.70;;;;;;5091276;28;20020;-71
2023/09/18 10:43:49;;;;;;;63.38;30.35;;;32.50;98.70;;;;;;5080252;28;20355;-72
2023/09/18 10:46:16;;;;;;;77.80;36.10;;;32.40;98.20;;;;;;5086589;28;20030;-69
2023/09/18 10:48:46;;;;;;;56.35;28.40;;;32.40;99.10;;;;;;5082039;28;20039;-72
2023/09/18 10:51:13;;;;;;;59.72;27.88;;;32.30;99.10;;;;;;5082928;28;20114;-72
2023/09/18 10:53:41;;;;;;;61.88;29.65;;;32.30;98.80;;;;;;5082305;28;20028;-70
2023/09/18 10:56:07;;;;;;;39.63;22.77;;;32.30;98.60;;;;;;5078189;28;20095;-72
2023/09/18 10:58:35;;;;;;;42.92;24.25;;;32.30;99.10;;;;;;5075878;28;20043;-69
2023/09/18 11:01:04;;;;;;;39.60;22.25;;;32.30;98.90;;;;;;5077988;28;20059;-70
2023/09/18 11:03:34;;;;;;;36.55;21.30;;;32.30;99.10;;;;;;5091733;28;20024;-67
2023/09/18 11:06:14;;;;;;;41.95;25.35;;;32.20;99.00;;;;;;5074043;28;20550;-68
2023/09/18 11:08:46;;;;;;;42.35;22.73;;;32.10;98.80;;;;;;5073247;28;20021;-68
2023/09/18 11:11:14;;;;;;;;;;;32.10;99.40;;;;;;5072920;28;20032;-67
2023/09/18 11:13:47;;;;;;;38.42;21.88;;;32.00;99.00;;;;;;5081207;28;20290;-67
2023/09/18 11:16:19;;;;;;;43.03;22.05;;;32.00;99.40;;;;;;5080247;28;20028;-63
2023/09/18 11:18:52;;;;;;;39.13;22.10;;;32.00;99.50;;;;;;5079631;28;20094;-64
2023/09/18 11:21:24;;;;;;;44.75;23.40;;;32.00;99.70;;;;;;5088272;28;20115;-65
2023/09/18 11:24:00;;;;;;;42.63;21.90;;;31.90;99.70;;;;;;5089878;28;20052;-65
2023/09/18 11:26:31;;;;;;;39.10;20.58;;;31.90;99.90;;;;;;5091947;28;20073;-65
2023/09/18 11:29:05;;;;;;;35.47;21.45;;;31.90;99.90;;;;;;5091303;28;20024;-65
2023/09/18 11:31:53;;;;;;;54.38;25.88;;;31.90;99.90;;;;;;5083419;28;20039;-67
2023/09/18 11:34:31;;;;;;;40.03;21.08;;;31.80;99.90;;;;;;5086257;28;20032;-68
2023/09/18 11:36:58;;;;;;;36.13;20.85;;;31.80;99.90;;;;;;5086124;28;20070;-66
2023/09/18 11:39:36;;;;;;;38.85;20.30;;;31.80;99.90;;;;;;5076640;28;20031;-67
2023/09/18 11:42:16;;;;;;;38.38;19.60;;;31.80;99.90;;;;;;5085692;28;20398;-68
2023/09/18 11:47:21;;;;;;;37.80;22.00;;;31.70;99.90;;;;;;5083809;28;20099;-68
2023/09/18 11:49:54;;;;;;;40.78;22.83;;;31.70;99.90;;;;;;5083587;28;20025;-68
2023/09/18 11:52:26;;;;;;;46.15;28.13;;;31.70;99.90;;;;;;5079332;28;20020;-68
2023/09/18 11:54:55;;;;;;;52.17;31.67;;;31.60;99.90;;;;;;5077930;28;20028;-70
2023/09/18 11:57:22;;;;;;;64.22;33.78;;;31.60;99.90;;;;;;5075182;28;20145;-68
2023/09/18 11:59:50;;;;;;;61.40;35.42;;;31.50;99.90;;;;;;5082519;28;20017;-70
2023/09/18 12:02:38;;;;;;;63.10;38.60;;;31.50;99.90;;;;;;5082420;28;20024;-69
2023/09/18 12:05:11;;;;;;;71.22;44.38;;;31.50;99.90;;;;;;5073752;28;20440;-72
2023/09/18 12:07:39;;;;;;;77.38;47.53;;;31.40;99.90;;;;;;5081685;28;20086;-70
2023/09/18 12:10:08;;;;;;;93.28;56.08;;;31.50;99.90;;;;;;5073104;28;20016;-72
2023/09/18 12:12:35;;;;;;;87.82;53.28;;;31.40;99.90;;;;;;5085026;28;20024;-67
2023/09/18 12:15:03;;;;;;;80.60;50.47;;;31.40;99.90;;;;;;5084960;28;20035;-66
2023/09/18 12:17:29;;;;;;;89.90;54.03;;;31.40;99.90;;;;;;5090312;28;20066;-65
2023/09/18 12:19:56;;;;;;;92.00;56.10;;;31.40;99.90;;;;;;5091318;28;20030;-65
2023/09/18 12:22:26;;;;;;;97.95;58.63;;;31.30;99.90;;;;;;5091135;28;20347;-67
2023/09/18 12:24:53;;;;;;;104.38;60.20;;;31.30;99.90;;;;;;5091886;28;20070;-65
2023/09/18 12:27:20;;;;;;;111.65;65.50;;;31.20;99.90;;;;;;5090052;28;20437;-66
2023/09/18 12:29:47;;;;;;;109.25;65.38;;;31.20;99.90;;;;;;5083351;28;20024;-65
2023/09/18 12:32:14;;;;;;;113.18;65.20;;;31.20;99.90;;;;;;5085792;28;20379;-71